Time;durP1;ratioP1;P1;durP2;ratioP2;P2;SDS_P1;SDS_P2;PMS_P1;PMS_P2;Temp;Humidity;BMP_temperature;BMP_pressure;BME280_temperature;BME280_humidity;BME280_pressure;Samples;Min_cycle;Max_cycle;Signal;HPM_P1;HPM_P2
2022/01/27 00:02:33;;;;;;;;;;;-2.50;99.90;;;;;;5076582;28;19977;-51
2022/01/27 00:05:11;;;;;;;;;;;-2.50;99.90;;;;;;5096406;28;19931;-50
2022/01/27 00:07:38;;;;;;;;;;;-2.50;99.90;;;;;;5096807;28;19924;-52
2022/01/27 00:10:16;;;;;;;;;;;-2.40;99.90;;;;;;5092771;28;19924;-50
2022/01/27 00:12:43;;;;;;;;;;;-2.40;99.90;;;;;;5086174;28;19935;-50
2022/01/27 00:15:12;;;;;;;;;;;-2.30;99.90;;;;;;5095597;28;19969;-50
2022/01/27 00:17:43;;;;;;;;;;;-2.30;99.90;;;;;;5096323;28;20406;-50
2022/01/27 00:20:11;;;;;;;;;;;-2.30;99.90;;;;;;5094886;28;19977;-50
2022/01/27 00:22:37;;;;;;;;;;;-2.30;99.90;;;;;;5082464;28;19928;-51
2022/01/27 00:25:07;;;;;;;;;;;-2.20;99.90;;;;;;5088083;28;19969;-50
2022/01/27 00:27:34;;;;;;;;;;;-2.20;99.90;;;;;;5096694;28;19924;-52
2022/01/27 00:30:03;;;;;;;;;;;-2.00;99.90;;;;;;5095507;28;19928;-50
2022/01/27 00:32:30;;;;;;;;;;;-1.80;99.90;;;;;;5076020;28;19924;-51
2022/01/27 00:34:57;;;;;;;;;;;-1.80;99.90;;;;;;5080253;28;20364;-50
2022/01/27 00:37:23;;;;;;;;;;;-1.80;99.90;;;;;;5096920;28;19928;-51
2022/01/27 00:39:50;;;;;;;;;;;-1.70;99.90;;;;;;5095506;28;20283;-51
2022/01/27 00:42:18;;;;;;;;;;;-1.70;99.90;;;;;;5078642;28;19978;-51
2022/01/27 00:44:45;;;;;;;;;;;-1.70;99.90;;;;;;5076375;28;19928;-51
2022/01/27 00:47:12;;;;;;;;;;;-1.80;99.90;;;;;;5094385;28;19925;-51
2022/01/27 00:49:39;;;;;;;;;;;-1.80;99.90;;;;;;5095715;28;20390;-51
2022/01/27 00:52:08;;;;;;;;;;;-1.80;99.90;;;;;;5079734;28;19931;-51
2022/01/27 00:54:35;;;;;;;;;;;-1.80;99.90;;;;;;5095771;28;20011;-51
2022/01/27 00:57:08;;;;;;;;;;;-1.90;99.90;;;;;;5095561;28;19924;-50
2022/01/27 00:59:46;;;;;;;;;;;-2.00;99.90;;;;;;5078606;28;19931;-50
2022/01/27 01:02:19;;;;;;;;;;;-2.20;99.90;;;;;;5092968;28;19957;-51
2022/01/27 01:04:55;;;;;;;;;;;-2.20;99.90;;;;;;5095660;28;19924;-51
2022/01/27 01:07:22;;;;;;;;;;;-2.40;99.90;;;;;;5095682;28;19964;-51
2022/01/27 01:15:20;;;;;;;;;;;-2.60;99.90;;;;;;5046622;28;19921;-51
2022/01/27 01:18:00;;;;;;;;;;;-2.60;99.90;;;;;;5078541;28;19935;-51
2022/01/27 01:20:48;;;;;;;;;;;-2.60;99.90;;;;;;5089343;28;19928;-51
2022/01/27 01:31:45;;;;;;;;;;;-2.50;99.90;;;;;;5095445;28;20015;-51
2022/01/27 01:34:13;;;;;;;;;;;-2.50;99.90;;;;;;5094942;28;19985;-51
2022/01/27 01:36:48;;;;;;;;;;;-2.50;99.90;;;;;;5090436;28;20425;-51
2022/01/27 01:39:15;;;;;;;;;;;-2.60;99.90;;;;;;5074935;28;19951;-51
2022/01/27 01:41:42;;;;;;;;;;;-2.60;99.90;;;;;;5076679;28;19924;-51
2022/01/27 01:44:08;;;;;;;;;;;-2.60;99.90;;;;;;5095516;28;19976;-51
2022/01/27 01:46:36;;;;;;;;;;;-2.50;99.90;;;;;;5095066;28;20348;-51
2022/01/27 01:49:03;;;;;;;;;;;-2.40;99.90;;;;;;5083558;28;20328;-51
2022/01/27 01:51:32;;;;;;;;;;;-2.30;99.90;;;;;;5089362;28;20378;-51
2022/01/27 01:53:59;;;;;;;;;;;-2.40;99.90;;;;;;5074827;28;20297;-51
2022/01/27 01:56:26;;;;;;;;;;;-2.50;99.90;;;;;;5082792;28;19932;-51
2022/01/27 01:58:53;;;;;;;;;;;-2.40;99.90;;;;;;5094542;28;19927;-51
2022/01/27 02:01:20;;;;;;;;;;;-2.50;99.90;;;;;;5095298;28;20394;-51
2022/01/27 02:03:48;;;;;;;;;;;-2.40;99.90;;;;;;5093797;28;19924;-51
2022/01/27 02:06:21;;;;;;;;;;;-2.40;99.90;;;;;;5077132;28;19947;-51
2022/01/27 02:09:03;;;;;;;;;;;-2.40;99.90;;;;;;5090336;28;19931;-51
2022/01/27 02:19:45;;;;;;;;;;;-2.50;99.90;;;;;;5080207;28;19969;-51
2022/01/27 02:22:13;;;;;;;;;;;-2.50;99.90;;;;;;5092785;28;19924;-51
2022/01/27 02:24:40;;;;;;;;;;;-2.60;99.90;;;;;;5076539;28;19978;-51
2022/01/27 02:27:06;;;;;;;;;;;-2.40;99.90;;;;;;5075860;28;19925;-50
2022/01/27 02:29:33;;;;;;;;;;;-2.30;99.90;;;;;;5094859;28;19928;-50
2022/01/27 02:32:01;;;;;;;;;;;-2.40;99.90;;;;;;5094526;28;19924;-50
2022/01/27 02:34:28;;;;;;;;;;;-2.40;99.90;;;;;;5077319;28;19940;-51
2022/01/27 02:36:55;;;;;;;;;;;-2.50;99.90;;;;;;5073402;28;19924;-50
2022/01/27 02:39:23;;;;;;;;;;;-2.40;99.90;;;;;;5073543;28;19929;-50
2022/01/27 02:41:52;;;;;;;;;;;-2.40;99.90;;;;;;5073985;28;19931;-51
2022/01/27 02:44:20;;;;;;;;;;;-2.40;99.90;;;;;;5073305;28;19925;-50
2022/01/27 02:46:50;;;;;;;;;;;-2.40;99.90;;;;;;5089048;28;19969;-51
2022/01/27 02:49:17;;;;;;;;;;;-2.40;99.90;;;;;;5088623;28;19925;-51
2022/01/27 02:51:44;;;;;;;;;;;-2.40;99.90;;;;;;5074123;28;19944;-51
2022/01/27 02:54:32;;;;;;;;;;;-2.50;99.90;;;;;;5081014;28;20054;-51
2022/01/27 02:56:58;;;;;;;;;;;-2.50;99.90;;;;;;5093825;28;19977;-49
2022/01/27 02:59:25;;;;;;;;;;;-2.70;99.90;;;;;;5076176;28;19947;-51
2022/01/27 03:01:52;;;;;;;;;;;-2.70;99.90;;;;;;5094204;28;20278;-50
2022/01/27 03:04:19;;;;;;;;;;;-2.70;99.90;;;;;;5091516;28;19978;-51
2022/01/27 03:06:47;;;;;;;;;;;-2.70;99.90;;;;;;5073512;28;19978;-50
2022/01/27 03:09:14;;;;;;;;;;;-2.60;99.90;;;;;;5090878;28;20405;-51
2022/01/27 03:11:46;;;;;;;;;;;-2.50;99.90;;;;;;5095223;28;19924;-51
2022/01/27 03:14:13;;;;;;;;;;;-2.50;99.90;;;;;;5097252;28;19939;-51
2022/01/27 03:16:40;;;;;;;;;;;-2.50;99.90;;;;;;5087777;28;19956;-50
2022/01/27 03:19:07;;;;;;;;;;;-2.40;99.90;;;;;;5089684;28;20133;-50
2022/01/27 03:21:34;;;;;;;;;;;-2.40;99.90;;;;;;5086371;28;20314;-50
2022/01/27 03:24:00;;;;;;;;;;;-2.30;99.90;;;;;;5075140;28;19970;-51
2022/01/27 03:26:28;;;;;;;;;;;-2.30;99.90;;;;;;5073678;28;19974;-51
2022/01/27 03:28:56;;;;;;;;;;;-2.30;99.90;;;;;;5087002;28;20270;-51
2022/01/27 03:31:23;;;;;;;;;;;-2.30;99.90;;;;;;5093584;28;19924;-51
2022/01/27 03:33:49;;;;;;;;;;;-2.30;99.90;;;;;;5093892;28;20381;-51
2022/01/27 03:36:16;;;;;;;;;;;-2.40;99.90;;;;;;5092319;28;20267;-51
2022/01/27 03:38:43;;;;;;;;;;;-2.30;99.90;;;;;;5080444;28;19925;-51
2022/01/27 03:41:11;;;;;;;;;;;-2.40;99.90;;;;;;5073632;28;19924;-51
2022/01/27 03:43:40;;;;;;;;;;;-2.50;99.90;;;;;;5086534;28;19924;-51
2022/01/27 03:46:08;;;;;;;;;;;-2.60;99.90;;;;;;5093251;28;19908;-51
2022/01/27 03:48:35;;;;;;;;;;;-2.60;99.90;;;;;;5082853;28;19924;-50
2022/01/27 03:51:02;;;;;;;;;;;-2.60;99.90;;;;;;5073621;28;19924;-51
2022/01/27 03:53:29;;;;;;;;;;;-2.60;99.90;;;;;;5074156;28;19928;-52
2022/01/27 03:55:56;;;;;;;;;;;-2.60;99.90;;;;;;5081080;28;19924;-51
2022/01/27 03:58:23;;;;;;;;;;;-2.70;99.90;;;;;;5087403;28;19924;-50
2022/01/27 04:00:50;;;;;;;;;;;-2.70;99.90;;;;;;5077303;28;19928;-51
2022/01/27 04:03:20;;;;;;;;;;;-2.70;99.90;;;;;;5077001;28;19925;-51
2022/01/27 04:05:52;;;;;;;;;;;-2.80;99.90;;;;;;5076796;28;20015;-51
2022/01/27 04:08:19;;;;;;;;;;;-2.90;99.90;;;;;;5085394;28;19959;-51
2022/01/27 04:10:46;;;;;;;;;;;-2.90;99.90;;;;;;5097050;28;19912;-50
2022/01/27 04:13:16;;;;;;;;;;;-2.90;99.90;;;;;;5096589;28;19930;-51
2022/01/27 04:15:43;;;;;;;;;;;-3.00;99.90;;;;;;5096725;28;19931;-51
2022/01/27 04:18:10;;;;;;;;;;;-3.10;99.90;;;;;;5089761;28;19932;-51
2022/01/27 04:20:38;;;;;;;;;;;-3.20;99.90;;;;;;5076761;28;20450;-51
2022/01/27 04:23:05;;;;;;;;;;;-3.30;99.90;;;;;;5077085;28;19974;-50
2022/01/27 04:25:32;;;;;;;;;;;-3.20;99.90;;;;;;5077251;28;19924;-50
2022/01/27 04:28:04;;;;;;;;;;;-3.30;99.90;;;;;;5082027;28;20014;-51
2022/01/27 04:30:31;;;;;;;;;;;-3.30;99.90;;;;;;5096916;28;20348;-51
2022/01/27 04:32:59;;;;;;;;;;;-3.40;99.90;;;;;;5083071;28;19924;-51
2022/01/27 04:35:28;;;;;;;;;;;-3.40;99.90;;;;;;5096828;28;19971;-51
2022/01/27 04:38:08;;;;;;;;;;;-3.40;99.90;;;;;;5096041;28;19928;-51
2022/01/27 04:40:41;;;;;;;;;;;-3.40;99.90;;;;;;5096715;28;19954;-51
2022/01/27 04:43:20;;;;;;;;;;;-3.40;99.90;;;;;;5096735;28;20421;-50
2022/01/27 04:45:55;;;;;;;;;;;-3.50;99.90;;;;;;5095978;28;19924;-50
2022/01/27 04:48:23;;;;;;;;;;;-3.50;99.90;;;;;;5081047;28;19938;-50
2022/01/27 04:50:51;;;;;;;;;;;-3.50;99.90;;;;;;5093606;28;19932;-50
2022/01/27 04:53:25;;;;;;;;;;;-3.60;99.90;;;;;;5097067;28;19935;-51
2022/01/27 04:55:54;;;;;;;;;;;-3.60;99.90;;;;;;5087338;28;19924;-52
2022/01/27 04:58:28;;;;;;;;;;;-3.60;99.90;;;;;;5092380;28;19924;-50
2022/01/27 05:00:57;;;;;;;;;;;-3.60;99.90;;;;;;5096151;28;20294;-50
2022/01/27 05:03:30;;;;;;;;;;;-3.70;99.90;;;;;;5097112;28;19924;-50
2022/01/27 05:05:57;;;;;;;;;;;-3.70;99.90;;;;;;5097377;28;19931;-50
2022/01/27 05:08:25;;;;;;;;;;;-3.70;99.90;;;;;;5096342;28;19930;-51
2022/01/27 05:10:57;;;;;;;;;;;-3.70;99.90;;;;;;5088067;28;19924;-50
2022/01/27 05:13:26;;;;;;;;;;;-3.70;99.90;;;;;;5077979;28;19971;-50
2022/01/27 05:15:54;;;;;;;;;;;-3.70;99.90;;;;;;5083586;28;20478;-50
2022/01/27 05:18:21;;;;;;;;;;;-3.70;99.90;;;;;;5096976;28;20314;-51
2022/01/27 05:20:48;;;;;;;;;;;-3.60;99.90;;;;;;5085030;28;19958;-50
2022/01/27 05:23:15;;;;;;;;;;;-3.50;99.90;;;;;;5083343;28;20382;-50
2022/01/27 05:25:45;;;;;;;;;;;-3.60;99.90;;;;;;5102445;28;19924;-50
2022/01/27 05:28:12;;;;;;;;;;;-3.60;99.90;;;;;;5103329;28;19925;-52
2022/01/27 05:30:39;;;;;;;;;;;-3.60;99.90;;;;;;5097008;28;19973;-50
2022/01/27 05:33:09;;;;;;;;;;;-3.50;99.90;;;;;;5088144;28;19928;-50
2022/01/27 05:35:36;;;;;;;;;;;-3.50;99.90;;;;;;5093748;28;19928;-50
2022/01/27 05:38:03;;;;;;;;;;;-3.50;99.90;;;;;;5082310;28;19924;-50
2022/01/27 05:40:29;;;;;;;;;;;-3.40;99.90;;;;;;5095435;28;19924;-51
2022/01/27 05:42:57;;;;;;;;;;;-3.40;99.90;;;;;;5095800;28;19969;-51
2022/01/27 05:45:24;;;;;;;;;;;-3.40;99.90;;;;;;5117649;22;20921;-52
2022/01/27 05:47:54;;;;;;;;;;;-3.40;99.90;;;;;;5100631;28;19978;-52
2022/01/27 05:50:21;;;;;;;;;;;-3.40;99.90;;;;;;5113332;28;19928;-52
2022/01/27 05:52:47;;;;;;;;;;;-3.40;99.90;;;;;;5099659;27;20386;-51
2022/01/27 05:55:14;;;;;;;;;;;-3.50;99.90;;;;;;5092932;28;19924;-50
2022/01/27 05:57:41;;;;;;;;;;;-3.50;99.90;;;;;;5094764;27;19928;-53
2022/01/27 06:00:10;;;;;;;;;;;-3.50;99.90;;;;;;5101864;27;19971;-51
2022/01/27 06:02:37;;;;;;;;;;;-3.50;99.90;;;;;;5110104;27;20350;-51
2022/01/27 06:05:04;;;;;;;;;;;-3.50;99.90;;;;;;5109815;28;19928;-51
2022/01/27 06:07:31;;;;;;;;;;;-3.50;99.90;;;;;;5104955;28;20354;-52
2022/01/27 06:09:58;;;;;;;;;;;-3.60;99.90;;;;;;5107534;27;19939;-51
2022/01/27 06:12:25;;;;;;;;;;;-3.70;99.90;;;;;;5111978;28;19998;-52
2022/01/27 06:14:52;;;;;;;;;;;-3.70;99.90;;;;;;5103549;28;19924;-51
2022/01/27 06:17:21;;;;;;;;;;;-3.60;99.90;;;;;;5106691;27;20008;-53
2022/01/27 06:19:48;;;;;;;;;;;-3.60;99.90;;;;;;5106744;28;19927;-54
2022/01/27 06:22:16;;;;;;;;;;;-3.60;99.90;;;;;;5110815;28;20360;-50
2022/01/27 06:24:44;;;;;;;;;;;-3.70;99.90;;;;;;5111188;28;19936;-50
2022/01/27 06:27:10;;;;;;;;;;;-3.70;99.90;;;;;;5103106;28;19928;-50
2022/01/27 06:29:37;;;;;;;;;;;-3.80;99.90;;;;;;5104277;28;20027;-49
2022/01/27 06:32:05;;;;;;;;;;;-3.80;99.90;;;;;;5110198;28;20000;-50
2022/01/27 06:34:33;;;;;;;;;;;-3.90;99.90;;;;;;5111721;28;19924;-50
2022/01/27 06:37:00;;;;;;;;;;;-3.80;99.90;;;;;;5112025;28;19931;-49
2022/01/27 06:39:26;;;;;;;;;;;-3.90;99.90;;;;;;5111807;28;19950;-50
2022/01/27 06:41:53;;;;;;;;;;;-3.90;99.90;;;;;;5111949;28;20388;-51
2022/01/27 06:44:20;;;;;;;;;;;-3.90;99.90;;;;;;5112377;28;19923;-48
2022/01/27 06:46:46;;;;;;;;;;;-3.90;99.90;;;;;;5112046;28;19939;-50
2022/01/27 06:49:16;;;;;;;;;;;-3.90;99.90;;;;;;5112040;28;19924;-50
2022/01/27 06:51:45;;;;;;;;;;;-4.00;99.90;;;;;;5111557;28;20026;-51
2022/01/27 06:54:12;;;;;;;;;;;-4.00;99.90;;;;;;5112149;28;20015;-50
2022/01/27 06:56:38;;;;;;;;;;;-4.10;99.90;;;;;;5111993;28;20041;-50
2022/01/27 06:59:05;;;;;;;;;;;-4.10;99.90;;;;;;5111956;28;19969;-51
2022/01/27 07:01:32;;;;;;;;;;;-4.20;99.90;;;;;;5111688;28;19944;-49
2022/01/27 07:03:59;;;;;;;;;;;-4.10;99.90;;;;;;5112178;28;19982;-49
2022/01/27 07:06:25;;;;;;;;;;;-4.10;99.90;;;;;;5111803;28;20342;-51
2022/01/27 07:08:53;;;;;;;;;;;-4.10;99.90;;;;;;5111675;28;20442;-49
2022/01/27 07:11:20;;;;;;;;;;;-4.00;99.90;;;;;;5111446;28;19939;-49
2022/01/27 07:13:47;;;;;;;;;;;-3.90;99.90;;;;;;5111874;28;19928;-50
2022/01/27 07:16:14;;;;;;;;;;;-3.70;99.90;;;;;;5111913;28;19928;-49
2022/01/27 07:18:41;;;;;;;;;;;-3.70;99.90;;;;;;5111739;28;19927;-50
2022/01/27 07:21:07;;;;;;;;;;;-3.70;99.90;;;;;;5111785;28;19973;-50
2022/01/27 07:23:34;;;;;;;;;;;-3.70;99.90;;;;;;5111871;28;20384;-49
2022/01/27 07:26:03;;;;;;;;;;;-3.70;99.90;;;;;;5111836;28;19930;-51
2022/01/27 07:28:29;;;;;;;;;;;-3.50;99.90;;;;;;5111497;28;20392;-50
2022/01/27 07:30:56;;;;;;;;;;;-3.50;99.90;;;;;;5114467;28;19935;-50
2022/01/27 07:33:23;;;;;;;;;;;-3.50;99.90;;;;;;5115922;28;19996;-50
2022/01/27 07:35:50;;;;;;;;;;;-3.50;99.90;;;;;;5115732;27;19924;-50
2022/01/27 07:38:19;;;;;;;;;;;-3.50;99.90;;;;;;5115706;28;19997;-49
2022/01/27 07:40:46;;;;;;;;;;;-3.40;99.90;;;;;;5115489;28;19977;-49
2022/01/27 07:43:15;;;;;;;;;;;-3.20;99.90;;;;;;5115283;28;19924;-50
2022/01/27 07:45:42;;;;;;;;;;;-2.90;99.90;;;;;;5115425;28;19927;-49
2022/01/27 07:48:10;;;;;;;;;;;-2.80;99.90;;;;;;5115348;28;19931;-49
2022/01/27 07:50:37;;;;;;;;;;;-2.70;99.90;;;;;;5115384;28;19971;-50
2022/01/27 07:53:04;;;;;;;;;;;-2.70;99.90;;;;;;5115697;28;19924;-49
2022/01/27 07:55:31;;;;;;;;;;;-2.70;99.90;;;;;;5115546;28;19923;-49
2022/01/27 07:57:57;;;;;;;;;;;-2.60;99.90;;;;;;5115122;28;19988;-50
2022/01/27 08:00:25;;;;;;;;;;;-2.70;99.90;;;;;;5115113;28;19927;-50
2022/01/27 08:02:52;;;;;;;;;;;-2.50;99.90;;;;;;5115255;28;19977;-50
2022/01/27 08:05:20;;;;;;;;;;;-2.50;99.90;;;;;;5115461;28;19924;-49
2022/01/27 08:07:47;;;;;;;;;;;-2.40;99.90;;;;;;5115395;28;20321;-49
2022/01/27 08:10:14;;;;;;;;;;;-2.30;99.90;;;;;;5115161;28;19923;-50
2022/01/27 08:12:41;;;;;;;;;;;-2.20;99.90;;;;;;5114991;28;19924;-49
2022/01/27 08:15:08;;;;;;;;;;;-2.10;99.90;;;;;;5114942;28;19924;-50
2022/01/27 08:17:37;;;;;;;;;;;-1.90;99.90;;;;;;5115329;28;19981;-49
2022/01/27 08:20:04;;;;;;;;;;;-1.80;99.90;;;;;;5114783;28;19927;-51
2022/01/27 08:22:32;;;;;;;;;;;-1.70;99.90;;;;;;5114991;28;19968;-51
2022/01/27 08:24:58;;;;;;;;;;;-1.60;99.90;;;;;;5114666;28;20358;-50
2022/01/27 08:27:29;;;;;;;;;;;-1.60;99.90;;;;;;5114447;28;19993;-50
2022/01/27 08:30:01;;;;;;;;;;;-1.60;99.90;;;;;;5114618;28;19950;-50
2022/01/27 08:32:40;;;;;;;;;;;-1.40;99.90;;;;;;5115089;28;19927;-51
2022/01/27 08:35:10;;;;;;;;;;;-1.40;99.90;;;;;;5114748;28;20018;-50
2022/01/27 08:37:37;;;;;;;;;;;-1.40;99.90;;;;;;5114538;28;20022;-50
2022/01/27 08:40:04;;;;;;;;;;;-1.20;99.90;;;;;;5114319;28;19924;-48
2022/01/27 08:42:31;;;;;;;;;;;-1.10;99.90;;;;;;5113654;28;19997;-49
2022/01/27 08:44:58;;;;;;;;;;;-1.00;99.90;;;;;;5114399;28;19977;-49
2022/01/27 08:47:25;;;;;;;;;;;-1.10;99.90;;;;;;5114400;28;20299;-49
2022/01/27 08:49:52;;;;;;;;;;;-0.90;99.90;;;;;;5114206;28;19977;-49
2022/01/27 08:52:20;;;;;;;;;;;-0.80;99.90;;;;;;5114261;28;19931;-50
2022/01/27 08:54:47;;;;;;;;;;;-0.70;99.90;;;;;;5113434;28;19993;-50
2022/01/27 08:57:14;;;;;;;;;;;-0.90;99.90;;;;;;5102067;28;19924;-50
2022/01/27 08:59:40;;;;;;;;;;;-0.90;99.90;;;;;;5113281;28;19976;-50
2022/01/27 09:02:08;;;;;;;;;;;-0.80;99.90;;;;;;5132531;27;20346;-51
2022/01/27 09:04:35;;;;;;;;;;;-0.60;99.90;;;;;;5134517;27;20396;-50
2022/01/27 09:07:01;;;;;;;;;;;-0.50;99.90;;;;;;5134258;27;20396;-50
2022/01/27 09:09:29;;;;;;;;;;;-0.20;99.90;;;;;;5134178;27;19927;-50
2022/01/27 09:11:58;;;;;;;;;;;-0.10;99.90;;;;;;5129174;27;20270;-50
2022/01/27 09:14:29;;;;;;;;;;;-0.10;99.90;;;;;;5114170;28;19971;-50
2022/01/27 09:16:56;;;;;;;;;;;-0.10;99.90;;;;;;5120749;27;20377;-50
2022/01/27 09:19:25;;;;;;;;;;;-0.20;99.90;;;;;;5118851;27;20421;-49
2022/01/27 09:21:53;;;;;;;;;;;-0.20;99.90;;;;;;5113487;28;20299;-49
2022/01/27 09:24:26;;;;;;;;;;;-0.40;99.90;;;;;;5113655;28;19931;-49
2022/01/27 09:27:00;;;;;;;;;;;-0.40;99.90;;;;;;5113651;28;19924;-48
2022/01/27 09:29:27;;;;;;;;;;;-0.40;99.90;;;;;;5113145;27;20336;-50
2022/01/27 09:31:54;;;;;;;;;;;-0.20;99.90;;;;;;5113497;28;19923;-49
2022/01/27 09:34:24;;;;;;;;;;;-0.20;99.90;;;;;;5113214;28;19981;-49
2022/01/27 09:36:51;;;;;;;;;;;-0.10;99.90;;;;;;5113336;28;20442;-50
2022/01/27 09:39:19;;;;;;;;;;;-0.10;99.90;;;;;;5114425;27;19984;-48
2022/01/27 09:41:46;;;;;;;;;;;0.10;99.90;;;;;;5113314;28;19924;-48
2022/01/27 09:44:15;;;;;;;;;;;0.10;99.90;;;;;;5114059;27;19923;-49
2022/01/27 09:46:43;;;;;;;;;;;0.10;99.90;;;;;;5113038;28;20030;-49
2022/01/27 09:49:17;;;;;;;;;;;0.30;99.90;;;;;;5112756;28;19930;-49
2022/01/27 09:51:46;;;;;;;;;;;0.60;99.90;;;;;;5113075;28;20403;-49
2022/01/27 09:54:14;;;;;;;;;;;0.60;99.90;;;;;;5119479;27;19930;-50
2022/01/27 09:56:41;;;;;;;;;;;0.50;99.90;;;;;;5133386;27;19924;-48
2022/01/27 09:59:09;;;;;;;;;;;0.70;99.90;;;;;;5117092;27;19971;-49
2022/01/27 10:01:38;;;;;;;;;;;0.70;99.90;;;;;;5092391;28;19928;-49
2022/01/27 10:04:05;;;;;;;;;;;0.50;99.90;;;;;;5108747;28;19924;-49
2022/01/27 10:06:34;;;;;;;;;;;0.60;99.90;;;;;;5112855;28;20010;-49
2022/01/27 10:09:14;;;;;;;;;;;0.50;99.90;;;;;;5112657;28;20250;-50
2022/01/27 10:11:42;;;;;;;;;;;0.40;99.90;;;;;;5123411;27;19924;-50
2022/01/27 10:14:19;;;;;;;;;;;0.60;99.90;;;;;;5112428;28;20305;-49
2022/01/27 10:16:49;;;;;;;;;;;0.50;99.90;;;;;;5112033;28;20396;-50
2022/01/27 10:19:16;;;;;;;;;;;0.30;99.90;;;;;;5112364;28;19927;-49
2022/01/27 10:21:42;;;;;;;;;;;0.40;99.90;;;;;;5112356;28;19924;-49
2022/01/27 10:24:20;;;;;;;;;;;0.40;99.90;;;;;;5112482;28;19928;-50
2022/01/27 10:26:53;;;;;;;;;;;0.60;99.90;;;;;;5112602;28;20333;-49
2022/01/27 10:29:34;;;;;;;;;;;0.60;99.90;;;;;;5111928;28;19938;-49
2022/01/27 10:32:04;;;;;;;;;;;1.00;99.90;;;;;;5112348;28;19923;-49
2022/01/27 10:34:31;;;;;;;;;;;1.20;99.90;;;;;;5112277;28;20316;-49
2022/01/27 10:36:58;;;;;;;;;;;1.10;99.90;;;;;;5111786;28;19923;-49
2022/01/27 10:39:24;;;;;;;;;;;1.30;99.90;;;;;;5112042;28;20003;-48
2022/01/27 10:41:56;;;;;;;;;;;1.40;99.90;;;;;;5111834;28;19963;-49
2022/01/27 10:44:23;;;;;;;;;;;1.60;99.90;;;;;;5112211;28;20362;-49
2022/01/27 10:47:01;;;;;;;;;;;1.70;99.90;;;;;;5111683;28;20385;-48
2022/01/27 10:49:31;;;;;;;;;;;1.50;99.90;;;;;;5111778;28;20412;-49
2022/01/27 10:51:58;;;;;;;;;;;1.50;99.90;;;;;;5112151;28;19927;-50
2022/01/27 10:54:37;;;;;;;;;;;1.70;99.90;;;;;;5111635;28;19931;-49
2022/01/27 10:57:04;;;;;;;;;;;1.70;99.90;;;;;;5111872;28;19977;-49
2022/01/27 10:59:33;;;;;;;;;;;1.90;99.90;;;;;;5111501;28;20019;-48
2022/01/27 11:02:00;;;;;;;;;;;1.70;99.90;;;;;;5111267;28;19924;-50
2022/01/27 11:04:35;;;;;;;;;;;1.50;99.90;;;;;;5111319;28;19989;-49
2022/01/27 11:07:02;;;;;;;;;;;1.60;99.90;;;;;;5111756;28;20378;-49
2022/01/27 11:09:33;;;;;;;;;;;1.50;99.90;;;;;;5111536;28;19924;-48
2022/01/27 11:12:03;;;;;;;;;;;1.50;99.90;;;;;;5111887;28;19928;-49
2022/01/27 11:14:31;;;;;;;;;;;1.30;99.90;;;;;;5111758;28;20018;-50
2022/01/27 11:16:59;;;;;;;;;;;1.20;99.90;;;;;;5111760;28;19931;-49
2022/01/27 11:19:53;;;;;;;;;;;1.10;99.90;;;;;;5111691;28;19928;-48
2022/01/27 11:25:49;;;;;;;;;;;1.50;99.90;;;;;;5097793;28;19924;-50
2022/01/27 11:27:58;;;;;;;;;;;1.80;99.90;;;;;;5105287;28;19930;-50
2022/01/27 11:30:28;;;;;;;;;;;2.20;99.90;;;;;;5114482;28;19928;-49
2022/01/27 11:32:59;;;;;;;;;;;2.20;99.90;;;;;;5121762;27;19985;-49
2022/01/27 11:35:28;;;;;;;;;;;2.30;99.90;;;;;;5109942;28;19924;-49
2022/01/27 11:37:57;;;;;;;;;;;2.50;99.90;;;;;;5111175;28;19950;-49
2022/01/27 11:40:34;;;;;;;;;;;2.50;99.90;;;;;;5117710;28;20370;-50
2022/01/27 11:43:08;;;;;;;;;;;2.40;99.90;;;;;;5119643;28;19923;-50
2022/01/27 11:45:36;;;;;;;;;;;2.40;99.90;;;;;;5147645;22;19984;-51
2022/01/27 11:48:10;;;;;;;;;;;2.70;99.90;;;;;;5111745;28;19928;-53
2022/01/27 11:50:47;;;;;;;;;;;2.80;99.90;;;;;;5112872;28;19928;-55
2022/01/27 11:53:28;;;;;;;;;;;2.70;99.90;;;;;;5112773;28;20382;-53
2022/01/27 11:55:55;;;;;;;;;;;2.60;99.90;;;;;;5112229;28;19966;-53
2022/01/27 11:58:22;;;;;;;;;;;2.60;99.90;;;;;;5112167;28;19969;-51
2022/01/27 12:01:02;;;;;;;;;;;2.70;99.90;;;;;;5112975;28;20120;-51
2022/01/27 12:03:29;;;;;;;;;;;2.70;99.90;;;;;;5112296;28;19934;-51
2022/01/27 12:06:15;;;;;;;;;;;2.50;99.90;;;;;;5112445;28;19924;-52
2022/01/27 12:08:44;;;;;;;;;;;2.60;99.90;;;;;;5111176;28;19931;-50
2022/01/27 12:11:12;;;;;;;;;;;2.50;99.90;;;;;;5113012;28;20357;-51
2022/01/27 12:13:59;;;;;;;;;;;2.70;99.90;;;;;;5112672;28;20011;-52
2022/01/27 12:16:52;;;;;;;;;;;2.70;99.90;;;;;;5112200;28;20012;-51
2022/01/27 12:19:19;;;;;;;;;;;2.40;99.90;;;;;;5116025;28;19934;-51
2022/01/27 12:21:55;;;;;;;;;;;2.50;99.90;;;;;;5115294;28;20377;-51
2022/01/27 12:24:27;;;;;;;;;;;2.60;99.90;;;;;;5115942;28;19924;-52
2022/01/27 12:26:55;;;;;;;;;;;2.70;99.90;;;;;;5115335;28;20001;-51
2022/01/27 12:29:25;;;;;;;;;;;2.60;99.90;;;;;;5115376;28;19932;-50
2022/01/27 12:31:53;;;;;;;;;;;2.50;99.90;;;;;;5115313;28;19928;-51
2022/01/27 12:34:20;;;;;;;;;;;2.60;99.90;;;;;;5116308;28;19968;-51
2022/01/27 12:36:54;;;;;;;;;;;2.70;99.90;;;;;;5115209;28;19924;-52
2022/01/27 12:39:21;;;;;;;;;;;2.90;99.90;;;;;;5115290;28;19968;-52
2022/01/27 12:41:49;;;;;;;;;;;3.20;99.90;;;;;;5115266;28;19977;-53
2022/01/27 12:44:16;;;;;;;;;;;3.30;99.90;;;;;;5116200;28;19993;-51
2022/01/27 12:46:58;;;;;;;;;;;3.30;99.90;;;;;;5114637;28;19948;-51
2022/01/27 12:49:36;;;;;;;;;;;3.30;99.90;;;;;;5115238;28;19924;-52
2022/01/27 12:52:06;;;;;;;;;;;3.00;99.90;;;;;;5114273;28;19959;-52
2022/01/27 12:54:33;;;;;;;;;;;2.90;99.90;;;;;;5114921;28;20533;-52
2022/01/27 12:57:01;;;;;;;;;;;2.60;99.90;;;;;;5115758;28;19976;-52
2022/01/27 12:59:32;;;;;;;;;;;2.80;99.90;;;;;;5113617;28;19981;-52
2022/01/27 13:01:59;;;;;;;;;;;2.90;99.90;;;;;;5114910;28;19923;-52
2022/01/27 13:04:26;;;;;;;;;;;2.80;99.90;;;;;;5114958;28;19977;-51
2022/01/27 13:06:53;;;;;;;;;;;2.70;99.90;;;;;;5114785;28;19924;-52
2022/01/27 13:09:21;;;;;;;;;;;2.60;99.90;;;;;;5114847;27;20006;-52
2022/01/27 13:11:49;;;;;;;;;;;2.60;99.90;;;;;;5115492;28;20100;-52
2022/01/27 13:14:18;;;;;;;;;;;2.60;99.90;;;;;;5114796;28;19928;-51
2022/01/27 13:16:50;;;;;;;;;;;2.50;99.90;;;;;;5114535;28;20331;-52
2022/01/27 13:19:24;;;;;;;;;;;2.60;99.90;;;;;;5115437;28;20010;-52
2022/01/27 13:22:00;;;;;;;;;;;2.40;99.90;;;;;;5115750;28;19927;-52
2022/01/27 13:34:07;;;;;;;;;;;2.50;99.90;;;;;;5111729;28;20420;-51
2022/01/27 13:36:36;;;;;;;;;;;2.30;99.90;;;;;;5105046;28;19924;-52
2022/01/27 13:39:12;;;;;;;;;;;2.40;99.90;;;;;;5114591;28;19978;-51
2022/01/27 13:41:39;;;;;;;;;;;2.60;99.90;;;;;;5114506;28;19923;-51
2022/01/27 13:44:06;;;;;;;;;;;2.60;99.90;;;;;;5109323;28;19970;-51
2022/01/27 13:46:34;;;;;;;;;;;2.60;99.90;;;;;;5094736;28;19974;-52
2022/01/27 13:49:05;;;;;;;;;;;2.50;99.90;;;;;;5095581;28;20351;-51
2022/01/27 13:51:31;;;;;;;;;;;2.50;99.90;;;;;;5110703;28;19924;-52
2022/01/27 13:54:04;;;;;;;;;;;2.60;99.90;;;;;;5114859;28;20321;-51
2022/01/27 13:56:40;;;;;;;;;;;2.60;99.90;;;;;;5115131;28;19977;-51
2022/01/27 13:59:11;;;;;;;;;;;2.30;99.90;;;;;;5114750;28;20442;-51
2022/01/27 14:01:39;;;;;;;;;;;2.30;99.90;;;;;;5114796;28;19928;-52
2022/01/27 14:04:08;;;;;;;;;;;2.30;99.90;;;;;;5114544;28;19924;-52
2022/01/27 14:06:47;;;;;;;;;;;2.30;99.90;;;;;;5114409;28;19930;-51
2022/01/27 14:09:16;;;;;;;;;;;2.20;99.90;;;;;;5113861;27;19924;-51
2022/01/27 14:11:43;;;;;;;;;;;2.20;99.90;;;;;;5111326;28;19924;-52
2022/01/27 14:14:09;;;;;;;;;;;2.20;99.90;;;;;;5114962;28;19980;-51
2022/01/27 14:16:37;;;;;;;;;;;2.20;99.90;;;;;;5114173;28;20022;-51
2022/01/27 14:19:11;;;;;;;;;;;2.10;99.90;;;;;;5114002;28;19924;-51
2022/01/27 14:21:41;;;;;;;;;;;2.10;99.90;;;;;;5113656;28;19928;-51
2022/01/27 14:24:10;;;;;;;;;;;2.00;99.90;;;;;;5114004;28;19923;-51
2022/01/27 14:26:41;;;;;;;;;;;2.00;99.90;;;;;;5114004;28;19971;-51
2022/01/27 14:29:09;;;;;;;;;;;2.00;99.90;;;;;;5113698;28;19923;-51
2022/01/27 14:31:38;;;;;;;;;;;2.10;99.90;;;;;;5114101;28;19977;-52
2022/01/27 14:34:05;;;;;;;;;;;2.00;99.90;;;;;;5114241;28;19928;-51
2022/01/27 14:36:31;;;;;;;;;;;2.00;99.90;;;;;;5113686;28;19928;-51
2022/01/27 14:38:58;;;;;;;;;;;2.00;99.90;;;;;;5113222;28;19976;-51
2022/01/27 14:41:25;;;;;;;;;;;1.90;99.90;;;;;;5113620;28;20374;-51
2022/01/27 14:43:53;;;;;;;;;;;1.80;99.90;;;;;;5114397;28;19984;-51
2022/01/27 14:46:27;;;;;;;;;;;1.70;99.90;;;;;;5114155;28;19927;-51
2022/01/27 14:48:58;;;;;;;;;;;1.50;99.90;;;;;;5113359;28;20452;-51
2022/01/27 14:51:25;;;;;;;;;;;1.50;99.90;;;;;;5112563;28;19936;-51
2022/01/27 14:53:52;;;;;;;;;;;1.40;99.90;;;;;;5113980;28;19976;-51
2022/01/27 14:56:20;;;;;;;;;;;1.40;99.90;;;;;;5114212;28;19908;-52
2022/01/27 14:58:47;;;;;;;;;;;1.30;99.90;;;;;;5114043;28;19924;-51
2022/01/27 15:01:15;;;;;;;;;;;1.30;99.90;;;;;;5113638;28;19924;-51
2022/01/27 15:03:42;;;;;;;;;;;1.30;99.90;;;;;;5113009;28;20166;-51
2022/01/27 15:06:09;;;;;;;;;;;1.30;99.90;;;;;;5114150;28;20369;-51
2022/01/27 15:08:35;;;;;;;;;;;1.20;99.90;;;;;;5113941;28;19923;-51